Time;durP1;ratioP1;P1;durP2;ratioP2;P2;SDS_P1;SDS_P2;PMS_P1;PMS_P2;Temp;Humidity;BMP_temperature;BMP_pressure;BME280_temperature;BME280_humidity;BME280_pressure;Samples;Min_cycle;Max_cycle;Signal;HPM_P1;HPM_P2
2024/03/11 00:00:17;;;;;;;0.50;0.50;;;6.80;99.90;;;;;;5062239;28;20753;-62
2024/03/11 00:02:45;;;;;;;1.13;0.30;;;6.80;99.90;;;;;;5063362;28;20202;-61
2024/03/11 00:05:12;;;;;;;0.40;0.40;;;6.70;99.90;;;;;;5063652;28;20328;-61
2024/03/11 00:07:45;;;;;;;0.23;0.23;;;6.70;99.90;;;;;;5058684;28;20201;-61
2024/03/11 00:10:15;;;;;;;0.60;0.60;;;6.70;99.90;;;;;;5060300;28;20694;-61
2024/03/11 00:12:50;;;;;;;0.30;0.30;;;6.60;99.90;;;;;;5067206;28;20255;-61
2024/03/11 00:15:20;;;;;;;1.13;0.30;;;6.70;99.90;;;;;;5064070;28;20210;-61
2024/03/11 00:17:48;;;;;;;0.40;0.40;;;6.50;99.90;;;;;;5065709;28;20755;-61
2024/03/11 00:20:15;;;;;;;0.63;0.43;;;6.50;99.90;;;;;;5069881;28;20743;-62
2024/03/11 00:22:46;;;;;;;1.47;0.40;;;6.50;99.90;;;;;;5067922;28;20201;-61
2024/03/11 00:25:13;;;;;;;1.43;0.50;;;6.50;99.90;;;;;;5065195;28;20206;-61
2024/03/11 00:27:45;;;;;;;0.40;0.40;;;6.40;99.90;;;;;;5066824;28;20206;-61
2024/03/11 00:30:15;;;;;;;0.73;0.73;;;6.40;99.90;;;;;;5067749;28;20191;-61
2024/03/11 00:32:45;;;;;;;0.60;0.60;;;6.40;99.90;;;;;;5068284;28;20681;-61
2024/03/11 00:35:13;;;;;;;0.40;0.40;;;6.30;99.90;;;;;;5066815;28;20213;-62
2024/03/11 00:37:45;;;;;;;1.17;0.30;;;6.30;99.90;;;;;;5066926;28;20222;-62
2024/03/11 00:40:14;;;;;;;0.43;0.40;;;6.30;99.90;;;;;;5067907;28;20203;-62
2024/03/11 00:42:44;;;;;;;0.40;0.30;;;6.30;99.90;;;;;;5070190;28;20287;-62
2024/03/11 00:45:13;;;;;;;0.30;0.30;;;6.20;99.90;;;;;;5070757;28;20219;-61
2024/03/11 00:47:46;;;;;;;0.30;0.30;;;6.20;99.90;;;;;;5061417;28;20289;-62
2024/03/11 00:50:14;;;;;;;0.20;0.20;;;6.20;99.90;;;;;;5067680;28;20750;-62
2024/03/11 00:52:41;;;;;;;0.30;0.30;;;6.10;99.90;;;;;;5063850;28;20205;-62
2024/03/11 00:55:10;;;;;;;0.63;0.63;;;6.00;99.90;;;;;;5064765;28;20266;-62
2024/03/11 00:57:38;;;;;;;0.30;0.30;;;6.00;99.90;;;;;;5061886;28;20230;-62
2024/03/11 01:00:08;;;;;;;0.30;0.30;;;5.90;99.90;;;;;;5069366;28;20203;-62
2024/03/11 01:02:37;;;;;;;0.43;0.43;;;5.80;99.90;;;;;;5071476;28;20252;-61
2024/03/11 01:05:05;;;;;;;0.70;0.70;;;5.70;99.90;;;;;;5069021;28;20230;-62
2024/03/11 01:07:35;;;;;;;0.60;0.60;;;5.60;99.90;;;;;;5070700;28;20253;-62
2024/03/11 01:10:02;;;;;;;0.30;0.30;;;5.60;99.90;;;;;;5048638;28;20218;-62
2024/03/11 01:12:29;;;;;;;1.70;0.57;;;5.60;99.90;;;;;;5043261;28;20204;-62
2024/03/11 01:14:56;;;;;;;0.60;0.60;;;5.60;99.90;;;;;;5048190;28;20732;-62
2024/03/11 01:17:23;;;;;;;0.57;0.57;;;5.60;99.90;;;;;;5053862;28;20367;-62
2024/03/11 01:19:52;;;;;;;0.47;0.47;;;5.60;99.90;;;;;;5067992;28;20208;-62
2024/03/11 01:22:19;;;;;;;0.40;0.40;;;5.60;99.90;;;;;;5069670;28;20208;-62
2024/03/11 01:24:47;;;;;;;0.60;0.60;;;5.60;99.90;;;;;;5048509;28;20222;-62
2024/03/11 01:27:14;;;;;;;0.50;0.50;;;5.50;99.90;;;;;;5068539;28;20272;-62
2024/03/11 01:29:41;;;;;;;0.60;0.60;;;5.50;99.90;;;;;;5065309;28;20328;-62
2024/03/11 01:32:11;;;;;;;0.70;0.70;;;5.50;99.90;;;;;;5062029;28;20261;-62
2024/03/11 01:34:39;;;;;;;1.70;0.53;;;5.40;99.90;;;;;;5069433;28;20247;-62
2024/03/11 01:37:08;;;;;;;0.40;0.40;;;5.30;99.90;;;;;;5060172;28;20231;-62
2024/03/11 01:39:43;;;;;;;2.30;0.73;;;5.30;99.90;;;;;;5067629;28;20211;-62
2024/03/11 01:42:14;;;;;;;0.50;0.50;;;5.30;99.90;;;;;;5070806;28;20257;-62
2024/03/11 01:44:41;;;;;;;0.60;0.60;;;5.20;99.90;;;;;;5072687;28;20308;-62
2024/03/11 01:47:09;;;;;;;0.63;0.63;;;5.10;99.90;;;;;;5070566;28;20224;-62
2024/03/11 01:49:37;;;;;;;0.80;0.80;;;5.10;99.90;;;;;;5057605;28;20239;-62
2024/03/11 01:52:06;;;;;;;0.93;0.93;;;5.20;99.90;;;;;;5070107;28;20258;-62
2024/03/11 01:54:36;;;;;;;0.80;0.80;;;5.10;99.90;;;;;;5069481;28;20618;-62
2024/03/11 01:57:04;;;;;;;0.53;0.53;;;5.20;99.90;;;;;;5059884;28;20274;-62
2024/03/11 01:59:34;;;;;;;0.70;0.70;;;5.30;99.90;;;;;;5061369;28;20211;-62
2024/03/11 02:02:02;;;;;;;1.07;0.70;;;5.20;99.90;;;;;;5073234;28;20671;-62
2024/03/11 02:04:30;;;;;;;0.60;0.60;;;;;;;;;;5053326;28;20289;-62
2024/03/11 02:06:58;;;;;;;1.17;0.73;;;5.30;99.90;;;;;;5062881;28;20284;-62
2024/03/11 02:09:25;;;;;;;0.77;0.77;;;5.20;99.90;;;;;;5068205;28;20261;-62
2024/03/11 02:11:53;;;;;;;0.53;0.53;;;5.20;99.90;;;;;;5070328;28;20202;-62
2024/03/11 02:14:20;;;;;;;0.93;0.93;;;5.00;99.90;;;;;;5069410;28;20285;-62
2024/03/11 02:16:48;;;;;;;0.97;0.90;;;5.00;99.90;;;;;;5069305;28;20228;-62
2024/03/11 02:19:18;;;;;;;0.90;0.90;;;4.90;99.90;;;;;;5069851;28;20389;-62
2024/03/11 02:21:46;;;;;;;0.80;0.80;;;4.90;99.90;;;;;;5062645;28;20269;-62
2024/03/11 02:24:16;;;;;;;0.97;0.97;;;;;;;;;;5074570;28;20220;-62
2024/03/11 02:26:45;;;;;;;0.80;0.80;;;4.80;99.90;;;;;;5069472;28;20292;-62
2024/03/11 02:29:16;;;;;;;0.93;0.93;;;4.80;99.90;;;;;;5062306;28;20199;-62
2024/03/11 02:31:43;;;;;;;0.70;0.70;;;4.80;99.90;;;;;;5073797;28;20206;-62
2024/03/11 02:34:10;;;;;;;1.50;1.50;;;4.80;99.90;;;;;;5066504;28;20223;-62
2024/03/11 02:36:38;;;;;;;3.03;1.63;;;4.70;99.90;;;;;;5072147;28;20213;-62
2024/03/11 02:39:07;;;;;;;1.00;1.00;;;4.60;99.90;;;;;;5073655;28;20206;-62
2024/03/11 02:41:36;;;;;;;1.20;1.10;;;4.60;99.90;;;;;;5074654;28;20336;-62
2024/03/11 02:44:04;;;;;;;1.17;1.13;;;4.60;99.90;;;;;;5071377;28;20579;-62
2024/03/11 02:46:31;;;;;;;1.10;1.10;;;4.50;99.90;;;;;;5071276;28;20299;-62
2024/03/11 02:48:58;;;;;;;1.30;1.17;;;4.50;99.90;;;;;;5073485;28;20623;-62
2024/03/11 02:51:25;;;;;;;3.13;0.97;;;4.50;99.90;;;;;;5071625;28;20206;-62
2024/03/11 02:53:53;;;;;;;1.40;1.30;;;4.60;99.90;;;;;;5067687;28;20225;-62
2024/03/11 02:56:20;;;;;;;0.93;0.93;;;4.50;99.90;;;;;;5061389;28;20371;-62
2024/03/11 02:58:49;;;;;;;0.77;0.77;;;4.50;99.90;;;;;;5069038;28;20683;-62
2024/03/11 03:01:16;;;;;;;1.73;1.13;;;4.50;99.90;;;;;;5066515;28;20209;-62
2024/03/11 03:03:43;;;;;;;2.03;1.93;;;4.50;99.90;;;;;;5072543;28;20289;-62
2024/03/11 03:06:11;;;;;;;1.37;1.20;;;4.60;99.90;;;;;;5072461;28;20668;-62
2024/03/11 03:08:38;;;;;;;1.70;1.37;;;4.50;99.90;;;;;;5072058;28;20210;-62
2024/03/11 03:11:06;;;;;;;6.10;1.33;;;4.60;99.90;;;;;;5073169;28;20204;-62
2024/03/11 03:13:33;;;;;;;1.17;1.10;;;4.60;99.90;;;;;;5068184;28;20246;-62
2024/03/11 03:16:01;;;;;;;1.10;1.10;;;4.60;99.90;;;;;;5066149;28;20733;-62
2024/03/11 03:18:28;;;;;;;0.90;0.90;;;4.60;99.90;;;;;;5073030;28;20203;-62
2024/03/11 03:20:55;;;;;;;1.80;1.40;;;4.60;99.90;;;;;;5070671;28;20264;-62
2024/03/11 03:23:22;;;;;;;1.30;1.30;;;4.60;99.90;;;;;;5069559;28;20232;-62
2024/03/11 03:25:49;;;;;;;1.20;1.20;;;4.60;99.90;;;;;;5070053;28;20214;-63
2024/03/11 03:28:16;;;;;;;1.27;1.27;;;4.60;99.90;;;;;;5071450;28;20228;-62
2024/03/11 03:30:43;;;;;;;1.90;1.30;;;4.50;99.90;;;;;;5071352;28;20196;-62
2024/03/11 03:33:12;;;;;;;1.17;1.17;;;4.50;99.90;;;;;;5069428;28;20227;-62
2024/03/11 03:35:40;;;;;;;0.90;0.90;;;;;;;;;;5068192;28;20285;-62
2024/03/11 03:38:07;;;;;;;1.00;0.93;;;4.30;99.90;;;;;;5071601;28;20227;-62
2024/03/11 03:40:34;;;;;;;1.47;1.37;;;4.40;99.90;;;;;;5067825;28;20252;-62
2024/03/11 03:43:03;;;;;;;1.90;1.80;;;4.40;99.90;;;;;;5065897;28;20261;-62
2024/03/11 03:45:31;;;;;;;1.50;1.40;;;;;;;;;;5068707;28;20207;-62
2024/03/11 03:47:58;;;;;;;3.47;2.33;;;4.50;99.90;;;;;;5066291;28;20197;-62
2024/03/11 03:50:27;;;;;;;2.50;1.97;;;4.40;99.90;;;;;;5073192;28;20204;-62
2024/03/11 03:52:54;;;;;;;1.90;1.80;;;4.40;99.90;;;;;;5067492;28;20207;-62
2024/03/11 03:55:23;;;;;;;1.37;1.30;;;4.40;99.90;;;;;;5060094;28;20287;-62
2024/03/11 03:57:51;;;;;;;1.50;1.40;;;4.50;99.90;;;;;;5068281;28;20254;-62
2024/03/11 04:00:20;;;;;;;2.10;2.00;;;4.50;99.90;;;;;;5068642;28;20235;-62
2024/03/11 04:02:48;;;;;;;2.50;2.30;;;4.50;99.90;;;;;;5070630;28;20285;-62
2024/03/11 04:05:16;;;;;;;2.40;2.20;;;;;;;;;;5071193;28;20195;-62
2024/03/11 04:07:45;;;;;;;1.93;1.53;;;4.50;99.90;;;;;;5064707;28;20213;-62
2024/03/11 04:10:13;;;;;;;1.63;1.53;;;4.40;99.90;;;;;;5072072;28;20280;-62
2024/03/11 04:12:44;;;;;;;2.23;1.83;;;4.40;99.90;;;;;;5070541;28;20302;-62
2024/03/11 04:15:12;;;;;;;1.30;1.30;;;4.30;99.90;;;;;;5067881;28;20234;-63
2024/03/11 04:17:39;;;;;;;1.70;1.60;;;4.30;99.90;;;;;;5072374;28;20264;-62
2024/03/11 04:20:11;;;;;;;1.93;1.83;;;4.40;99.90;;;;;;5071846;28;20209;-62
2024/03/11 04:22:42;;;;;;;1.70;1.60;;;4.40;99.90;;;;;;5064026;28;20208;-62
2024/03/11 04:25:15;;;;;;;2.07;1.97;;;4.40;99.90;;;;;;5064177;28;20217;-62
2024/03/11 04:27:47;;;;;;;0.87;0.87;;;4.20;99.90;;;;;;5058663;28;20226;-62
2024/03/11 04:30:15;;;;;;;0.90;0.90;;;4.20;99.90;;;;;;5058756;28;20199;-62
2024/03/11 04:32:52;;;;;;;1.03;1.03;;;4.20;99.90;;;;;;5065981;28;20224;-62
2024/03/11 04:35:19;;;;;;;1.90;1.30;;;4.20;99.90;;;;;;5058842;28;21647;-61
2024/03/11 04:37:46;;;;;;;1.20;1.20;;;4.10;99.90;;;;;;5059433;28;20296;-62
2024/03/11 04:40:15;;;;;;;1.83;1.77;;;3.90;99.90;;;;;;5060640;28;20211;-62
2024/03/11 04:42:42;;;;;;;1.27;1.27;;;3.90;99.90;;;;;;5061764;28;20251;-62
2024/03/11 04:45:10;;;;;;;1.70;1.60;;;4.00;99.90;;;;;;5061626;28;20247;-62
2024/03/11 04:47:38;;;;;;;1.93;1.73;;;3.90;99.90;;;;;;5059834;28;20272;-62
2024/03/11 04:50:05;;;;;;;2.27;1.27;;;3.90;99.90;;;;;;5062017;28;20739;-62
2024/03/11 04:52:33;;;;;;;1.10;1.10;;;3.80;99.90;;;;;;5065014;28;20206;-62
2024/03/11 04:55:01;;;;;;;0.60;0.60;;;3.70;99.90;;;;;;5059759;28;20701;-62
2024/03/11 04:57:29;;;;;;;0.80;0.80;;;3.60;99.90;;;;;;5060677;28;20326;-62
2024/03/11 04:59:56;;;;;;;0.70;0.70;;;3.60;99.90;;;;;;5058321;28;20205;-62
2024/03/11 05:02:24;;;;;;;0.67;0.67;;;3.70;99.90;;;;;;5058988;28;20207;-62
2024/03/11 05:04:52;;;;;;;1.30;0.70;;;3.60;99.90;;;;;;5058719;28;20236;-62
2024/03/11 05:07:19;;;;;;;0.60;0.60;;;3.70;99.90;;;;;;5058443;28;20198;-62
2024/03/11 05:09:46;;;;;;;1.07;0.97;;;3.60;99.90;;;;;;5061853;28;21704;-62
2024/03/11 05:12:13;;;;;;;1.80;1.70;;;3.70;99.90;;;;;;5059106;28;20211;-62
2024/03/11 05:14:41;;;;;;;3.17;2.13;;;3.80;99.90;;;;;;5062775;28;20785;-62
2024/03/11 05:17:08;;;;;;;1.53;1.43;;;3.80;99.90;;;;;;5062525;28;20214;-62
2024/03/11 05:19:36;;;;;;;1.90;1.00;;;3.80;99.90;;;;;;5058365;28;21223;-62
2024/03/11 05:22:03;;;;;;;0.90;0.90;;;3.70;99.90;;;;;;5058758;28;20202;-62
2024/03/11 05:24:29;;;;;;;0.93;0.80;;;3.60;99.90;;;;;;5061390;28;20230;-62
2024/03/11 05:26:56;;;;;;;1.33;0.90;;;3.60;99.90;;;;;;5057985;28;20208;-62
2024/03/11 05:29:23;;;;;;;1.43;0.90;;;3.60;99.90;;;;;;5058452;28;20686;-62
2024/03/11 05:31:53;;;;;;;1.70;1.20;;;3.50;99.90;;;;;;5062233;28;20256;-62
2024/03/11 05:34:21;;;;;;;1.13;1.13;;;3.50;99.90;;;;;;5062645;28;20221;-62
2024/03/11 05:36:49;;;;;;;1.50;1.40;;;3.40;99.90;;;;;;5059656;28;20249;-62
2024/03/11 05:39:16;;;;;;;2.70;1.67;;;3.50;99.90;;;;;;5062618;28;20310;-61
2024/03/11 05:41:43;;;;;;;1.73;1.63;;;3.40;99.90;;;;;;5064008;28;20198;-62
2024/03/11 05:44:10;;;;;;;2.60;1.60;;;3.50;99.90;;;;;;5067249;28;20705;-62
2024/03/11 05:46:37;;;;;;;2.43;1.80;;;3.50;99.90;;;;;;5064438;28;20202;-61
2024/03/11 05:49:08;;;;;;;2.00;1.90;;;3.50;99.90;;;;;;5069106;28;20194;-62
2024/03/11 05:51:37;;;;;;;4.13;2.23;;;3.50;99.90;;;;;;5068365;28;20200;-62
2024/03/11 05:54:05;;;;;;;2.30;1.87;;;3.40;99.90;;;;;;5067634;28;20308;-62
2024/03/11 05:56:32;;;;;;;2.47;1.57;;;3.40;99.90;;;;;;5071419;28;20194;-62
2024/03/11 05:59:00;;;;;;;1.23;1.23;;;3.40;99.90;;;;;;5073079;28;20632;-61
2024/03/11 06:01:27;;;;;;;1.37;1.27;;;3.50;99.90;;;;;;5071606;28;20291;-62
2024/03/11 06:03:54;;;;;;;1.93;1.60;;;3.50;99.90;;;;;;5073759;28;20230;-61
2024/03/11 06:06:23;;;;;;;2.67;1.40;;;3.40;99.90;;;;;;5073097;28;20218;-62
2024/03/11 06:08:50;;;;;;;3.43;1.80;;;3.40;99.90;;;;;;5073575;28;20210;-62
2024/03/11 06:11:17;;;;;;;2.67;2.20;;;3.50;99.90;;;;;;5073377;28;20256;-62
2024/03/11 06:13:45;;;;;;;2.83;1.50;;;3.60;99.90;;;;;;5073343;28;20296;-62
2024/03/11 06:16:12;;;;;;;1.57;1.10;;;3.60;99.90;;;;;;5069551;28;20201;-62
2024/03/11 06:18:39;;;;;;;1.43;1.37;;;3.70;99.90;;;;;;5069490;28;20224;-61
2024/03/11 06:21:07;;;;;;;2.30;2.10;;;3.60;99.90;;;;;;5068644;28;20682;-61
2024/03/11 06:23:35;;;;;;;2.00;1.67;;;3.60;99.90;;;;;;5072116;28;20223;-62
2024/03/11 06:26:03;;;;;;;2.47;1.90;;;3.70;99.90;;;;;;5071457;28;20199;-62
2024/03/11 06:28:30;;;;;;;1.33;1.27;;;3.80;99.90;;;;;;5070964;28;20616;-61
2024/03/11 06:30:57;;;;;;;1.60;1.50;;;3.80;99.90;;;;;;5073281;28;20253;-61
2024/03/11 06:33:25;;;;;;;1.63;1.53;;;3.90;99.90;;;;;;5071858;28;20227;-62
2024/03/11 06:35:52;;;;;;;1.50;1.40;;;4.00;99.90;;;;;;5071283;28;20202;-61
2024/03/11 06:38:19;;;;;;;1.15;1.15;;;4.40;99.90;;;;;;5069608;28;20453;-67
2024/03/11 06:40:48;;;;;;;1.60;1.47;;;5.20;99.90;;;;;;5068090;28;20207;-67
2024/03/11 06:43:16;;;;;;;0.90;0.90;;;5.50;99.90;;;;;;5072419;28;20248;-65
2024/03/11 06:45:43;;;;;;;0.80;0.80;;;5.70;99.90;;;;;;5065093;28;20202;-66
2024/03/11 06:48:10;;;;;;;1.43;1.33;;;5.50;99.90;;;;;;5071413;28;20201;-66
2024/03/11 06:50:38;;;;;;;2.67;1.30;;;5.40;99.90;;;;;;5069959;28;20259;-66
2024/03/11 06:53:07;;;;;;;0.97;0.97;;;5.20;99.90;;;;;;5071140;28;20199;-66
2024/03/11 06:55:35;;;;;;;2.10;1.90;;;5.40;99.90;;;;;;5066975;28;20298;-65
2024/03/11 06:58:03;;;;;;;2.13;1.10;;;5.20;99.90;;;;;;5065332;28;20224;-65
2024/03/11 07:00:30;;;;;;;2.10;1.50;;;5.00;99.90;;;;;;5072243;28;20287;-66
2024/03/11 07:02:58;;;;;;;1.43;1.43;;;5.00;99.90;;;;;;5070487;28;20205;-66
2024/03/11 07:05:27;;;;;;;1.33;1.23;;;4.90;99.90;;;;;;5070013;28;20208;-66
2024/03/11 07:07:55;;;;;;;0.90;0.90;;;4.80;99.90;;;;;;5068834;28;20671;-66
2024/03/11 07:10:24;;;;;;;1.17;1.07;;;4.70;99.90;;;;;;5068829;28;20206;-67
2024/03/11 07:12:51;;;;;;;1.10;1.10;;;5.20;99.90;;;;;;5071709;28;20291;-66
2024/03/11 07:15:20;;;;;;;2.63;2.43;;;5.70;99.90;;;;;;5070862;28;20265;-68
2024/03/11 07:17:47;;;;;;;2.03;1.93;;;6.10;99.90;;;;;;5068784;28;20640;-67
2024/03/11 07:20:14;;;;;;;3.53;2.20;;;6.40;99.90;;;;;;5071689;28;20207;-67
2024/03/11 07:22:45;;;;;;;1.90;1.80;;;6.80;99.90;;;;;;5066527;28;20208;-68
2024/03/11 07:25:15;;;;;;;4.37;2.10;;;7.20;99.90;;;;;;5068311;28;20710;-67
2024/03/11 07:27:47;;;;;;;2.37;2.27;;;7.50;99.90;;;;;;5067953;28;21506;-67
2024/03/11 07:30:16;;;;;;;2.47;2.30;;;7.40;99.90;;;;;;5071211;28;20559;-67
2024/03/11 07:32:45;;;;;;;2.40;2.10;;;7.40;99.90;;;;;;5068932;28;20201;-61
2024/03/11 07:35:14;;;;;;;1.60;1.53;;;7.30;99.90;;;;;;5065933;28;20225;-61
2024/03/11 07:37:42;;;;;;;1.80;1.70;;;7.20;99.90;;;;;;5066836;28;20697;-60
2024/03/11 07:40:11;;;;;;;4.50;2.00;;;6.80;99.90;;;;;;5064831;28;20210;-60
2024/03/11 07:42:42;;;;;;;2.00;1.90;;;6.70;99.90;;;;;;5068847;28;20752;-61
2024/03/11 07:45:11;;;;;;;2.37;2.17;;;6.60;99.90;;;;;;5067591;28;20726;-61
2024/03/11 07:47:39;;;;;;;1.40;1.40;;;6.60;99.90;;;;;;5109126;22;20234;-58
2024/03/11 07:50:09;;;;;;;1.97;1.87;;;6.50;99.90;;;;;;5099589;28;20252;-59
2024/03/11 07:52:37;;;;;;;2.30;1.30;;;6.60;99.90;;;;;;5124959;27;20617;-58
2024/03/11 07:55:04;;;;;;;1.60;1.50;;;6.80;99.90;;;;;;5129731;27;20203;-58
2024/03/11 07:57:31;;;;;;;1.70;1.60;;;7.10;99.90;;;;;;5103596;28;20712;-59
2024/03/11 07:59:58;;;;;;;2.30;1.10;;;7.30;99.90;;;;;;5108072;28;20240;-58
2024/03/11 08:02:26;;;;;;;1.33;1.33;;;7.70;99.90;;;;;;5113564;27;20198;-58
2024/03/11 08:04:55;;;;;;;2.93;2.67;;;8.20;99.90;;;;;;5118833;27;20668;-58
2024/03/11 08:07:24;;;;;;;2.63;2.40;;;;;;;;;;5106607;28;20222;-58
2024/03/11 08:09:51;;;;;;;1.73;1.17;;;9.60;99.90;;;;;;5109776;28;20261;-58
2024/03/11 08:12:18;;;;;;;1.00;1.00;;;10.00;99.90;;;;;;5111971;28;20289;-57
2024/03/11 08:14:45;;;;;;;3.93;1.73;;;9.70;99.90;;;;;;5115007;27;20196;-58
2024/03/11 08:17:12;;;;;;;2.03;1.93;;;9.80;99.90;;;;;;5107648;28;20673;-58
2024/03/11 08:19:39;;;;;;;1.83;1.50;;;9.50;99.90;;;;;;5107187;28;20214;-58
2024/03/11 08:22:06;;;;;;;1.20;1.07;;;9.40;99.90;;;;;;5112152;28;20746;-58
2024/03/11 08:24:36;;;;;;;1.73;1.63;;;9.20;99.90;;;;;;5106470;28;20300;-57
2024/03/11 08:27:04;;;;;;;1.73;1.67;;;9.30;99.90;;;;;;5108770;27;20240;-58
2024/03/11 08:29:31;;;;;;;1.53;1.40;;;9.10;99.90;;;;;;5112142;28;20245;-58
2024/03/11 08:32:00;;;;;;;3.60;1.47;;;9.00;99.90;;;;;;5112606;28;20197;-58
2024/03/11 08:34:28;;;;;;;2.43;1.23;;;9.20;99.90;;;;;;5111030;28;20194;-57
2024/03/11 08:36:55;;;;;;;0.70;0.70;;;9.30;99.90;;;;;;5102265;28;20291;-58
2024/03/11 08:39:24;;;;;;;1.40;1.03;;;9.20;99.90;;;;;;5104595;28;20224;-58
2024/03/11 08:41:53;;;;;;;0.73;0.73;;;9.10;99.90;;;;;;5107855;27;20569;-57
2024/03/11 08:44:21;;;;;;;1.37;0.90;;;9.00;99.90;;;;;;5104859;28;20204;-58
2024/03/11 08:46:48;;;;;;;1.03;1.03;;;9.10;99.90;;;;;;5109308;28;20229;-58
2024/03/11 08:49:15;;;;;;;1.30;0.40;;;9.50;99.90;;;;;;5109371;28;20213;-58
2024/03/11 08:51:42;;;;;;;0.67;0.67;;;10.20;99.90;;;;;;5110454;28;20198;-58
2024/03/11 08:54:09;;;;;;;0.30;0.30;;;10.60;99.90;;;;;;5110773;28;20202;-58
2024/03/11 08:56:37;;;;;;;0.50;0.40;;;10.90;99.90;;;;;;5109511;28;20202;-58
2024/03/11 08:59:10;;;;;;;0.73;0.50;;;11.60;99.90;;;;;;5110236;28;20293;-57
2024/03/11 09:01:40;;;;;;;0.43;0.43;;;12.60;99.90;;;;;;5109974;28;20799;-58
2024/03/11 09:04:10;;;;;;;0.50;0.50;;;13.20;99.90;;;;;;5112254;28;20263;-59
2024/03/11 09:06:39;;;;;;;1.03;0.50;;;13.10;99.90;;;;;;5107606;28;20206;-58
2024/03/11 09:09:07;;;;;;;0.37;0.37;;;12.90;99.90;;;;;;5106033;28;20229;-58
2024/03/11 09:11:34;;;;;;;0.83;0.40;;;12.40;99.90;;;;;;5101827;28;20202;-58
2024/03/11 09:14:01;;;;;;;0.50;0.30;;;12.60;99.90;;;;;;5111835;28;20716;-58
2024/03/11 09:16:29;;;;;;;0.30;0.30;;;12.40;99.90;;;;;;5111375;28;20209;-58
2024/03/11 09:18:57;;;;;;;0.43;0.30;;;12.50;99.90;;;;;;5107436;28;20226;-58
2024/03/11 09:21:24;;;;;;;0.93;0.70;;;;;;;;;;5106157;28;20203;-58
2024/03/11 09:23:51;;;;;;;0.60;0.60;;;;;;;;;;5107337;28;20203;-58
2024/03/11 09:26:18;;;;;;;1.03;0.63;;;12.70;99.90;;;;;;5111671;28;20739;-59
2024/03/11 09:28:46;;;;;;;0.50;0.50;;;;;;;;;;5115008;28;20217;-59
2024/03/11 09:31:14;;;;;;;0.47;0.47;;;12.50;99.90;;;;;;5118808;27;20294;-59
2024/03/11 09:33:42;;;;;;;0.57;0.30;;;13.10;99.90;;;;;;5116674;28;20344;-58
2024/03/11 09:36:09;;;;;;;0.40;0.30;;;13.30;99.90;;;;;;5116012;28;20226;-58
2024/03/11 09:38:36;;;;;;;1.97;0.30;;;14.00;99.90;;;;;;5110834;27;20222;-58
2024/03/11 09:41:11;;;;;;;0.77;0.40;;;14.90;99.90;;;;;;5112505;28;20295;-58
2024/03/11 09:43:39;;;;;;;0.30;0.30;;;;;;;;;;5113594;28;20198;-59
2024/03/11 09:46:07;;;;;;;1.47;0.37;;;;;;;;;;5117483;28;20733;-58
2024/03/11 09:48:36;;;;;;;0.63;0.47;;;;;;;;;;5105813;28;20224;-59
2024/03/11 09:51:10;;;;;;;0.30;0.30;;;;;;;;;;5112026;28;20204;-59
2024/03/11 09:53:40;;;;;;;1.53;0.40;;;;;;;;;;5116513;28;20206;-58
2024/03/11 09:56:09;;;;;;;1.43;0.20;;;;;;;;;;5117641;28;20761;-58
2024/03/11 09:58:36;;;;;;;0.30;0.30;;;;;;;;;;5118250;28;20790;-58
2024/03/11 10:01:07;;;;;;;0.50;0.30;;;;;;;;;;5112025;28;20640;-59
2024/03/11 10:03:34;;;;;;;1.60;0.43;;;;;;;;;;5114649;28;20195;-59
2024/03/11 10:06:04;;;;;;;1.07;0.27;;;;;;;;;;5117387;28;20196;-59
2024/03/11 10:08:35;;;;;;;0.33;0.33;;;;;;;;;;5116107;28;20214;-58
2024/03/11 10:11:12;;;;;;;0.30;0.30;;;;;;;;;;5117264;28;20196;-58
2024/03/11 10:13:39;;;;;;;1.40;0.30;;;;;;;;;;5118236;28;20293;-58
2024/03/11 10:16:17;;;;;;;0.30;0.30;;;;;;;;;;5117430;28;20628;-59
2024/03/11 10:18:55;;;;;;;0.77;0.40;;;;;;;;;;5117971;28;20219;-58
2024/03/11 10:21:22;;;;;;;0.30;0.30;;;;;;;;;;5107385;28;20738;-59
2024/03/11 10:23:51;;;;;;;0.30;0.30;;;;;;;;;;5118134;28;20204;-59
2024/03/11 10:26:19;;;;;;;1.80;0.50;;;;;;;;;;5112796;28;20199;-59
2024/03/11 10:28:47;;;;;;;0.40;0.40;;;;;;;;;;5120043;27;20214;-58
2024/03/11 10:31:23;;;;;;;0.30;0.30;;;;;;;;;;5119814;27;20206;-58
2024/03/11 10:33:52;;;;;;;0.63;0.63;;;;;;;;;;5127746;27;20211;-59
2024/03/11 10:36:21;;;;;;;0.50;0.50;;;;;;;;;;5117207;27;20717;-58
2024/03/11 10:38:48;;;;;;;0.30;0.30;;;;;;;;;;5117663;28;20218;-58
2024/03/11 10:41:21;;;;;;;1.33;0.30;;;;;;;;;;5106677;28;20203;-58
2024/03/11 10:43:51;;;;;;;0.37;0.30;;;;;;;;;;5114497;28;20750;-59
2024/03/11 10:46:20;;;;;;;0.30;0.30;;;;;;;;;;5113900;28;20199;-59
2024/03/11 10:48:48;;;;;;;0.30;0.30;;;;;;;;;;5114602;28;20200;-59
2024/03/11 10:51:21;;;;;;;0.60;0.30;;;;;;;;;;5113123;28;20332;-59
2024/03/11 10:53:49;;;;;;;0.30;0.30;;;;;;;;;;5114452;28;20287;-59
2024/03/11 10:56:19;;;;;;;0.20;0.20;;;;;;;;;;5113731;28;20276;-59
2024/03/11 10:58:52;;;;;;;1.43;0.30;;;;;;;;;;5113622;28;20257;-60
2024/03/11 11:01:24;;;;;;;0.33;0.30;;;;;;;;;;5105229;28;20666;-59
2024/03/11 11:03:54;;;;;;;0.37;0.20;;;;;;;;;;5094123;28;20751;-59
2024/03/11 11:06:27;;;;;;;2.03;0.20;;;;;;;;;;5093220;28;20592;-59
2024/03/11 11:08:54;;;;;;;0.27;0.27;;;;;;;;;;5094031;28;20196;-59
2024/03/11 11:11:23;;;;;;;0.30;0.13;;;;;;;;;;5108734;28;20208;-60
2024/03/11 11:13:55;;;;;;;0.73;0.23;;;;;;;;;;5113703;28;20667;-59
2024/03/11 11:16:25;;;;;;;0.20;0.10;;;;;;;;;;5093117;28;20200;-59
2024/03/11 11:18:54;;;;;;;0.23;0.10;;;;;;;;;;5093705;28;20220;-59
2024/03/11 11:21:29;;;;;;;1.17;0.20;;;;;;;;;;5110433;28;20204;-59
2024/03/11 11:23:56;;;;;;;0.23;0.20;;;;;;;;;;5106551;28;20203;-60
2024/03/11 11:26:42;;;;;;;4.10;0.20;;;;;;;;;;5113258;28;20207;-60
2024/03/11 11:29:11;;;;;;;0.10;0.10;;;;;;;;;;5093692;28;20277;-59
2024/03/11 11:31:38;;;;;;;0.20;0.20;;;;;;;;;;5110079;28;20222;-59
2024/03/11 11:34:12;;;;;;;0.10;0.10;;;;;;;;;;5107735;28;20212;-59
2024/03/11 11:37:01;;;;;;;0.30;0.27;;;;;;;;;;5113857;27;20770;-60
2024/03/11 11:39:32;;;;;;;0.33;0.30;;;;;;;;;;5112038;28;20329;-59
2024/03/11 11:41:59;;;;;;;0.10;0.10;;;;;;;;;;5116813;27;20639;-59
2024/03/11 11:44:45;;;;;;;1.90;0.17;;;;;;;;;;5109637;28;20617;-59
2024/03/11 11:47:15;;;;;;;0.10;0.10;;;;;;;;;;5113909;27;20327;-60
2024/03/11 11:49:43;;;;;;;1.60;0.10;;;;;;;;;;5109348;28;20291;-59
2024/03/11 11:52:14;;;;;;;0.10;0.10;;;;;;;;;;5111733;28;20223;-59
2024/03/11 11:54:41;;;;;;;0.83;0.20;;;;;;;;;;5110362;27;20219;-59
2024/03/11 11:57:11;;;;;;;0.20;0.20;;;;;;;;;;5115278;27;20296;-58
2024/03/11 11:59:40;;;;;;;0.73;0.20;;;;;;;;;;5118954;27;20251;-59
2024/03/11 12:02:15;;;;;;;0.10;0.10;;;;;;;;;;5110175;27;20200;-59
2024/03/11 12:04:48;;;;;;;0.20;0.20;;;;;;;;;;5108495;28;20202;-59
2024/03/11 12:07:22;;;;;;;0.33;0.20;;;;;;;;;;5110685;27;20224;-59
2024/03/11 12:09:50;;;;;;;0.30;0.30;;;;;;;;;;5114625;27;20905;-59
2024/03/11 12:12:25;;;;;;;0.20;0.20;;;;;;;;;;5121393;27;20302;-60
2024/03/11 12:14:53;;;;;;;0.73;0.33;;;;;;;;;;5107822;28;20746;-62
2024/03/11 12:17:20;;;;;;;0.77;0.20;;;;;;;;;;5113844;27;20227;-60
2024/03/11 12:19:49;;;;;;;0.73;0.20;;;;;;;;;;5118101;27;20219;-60
2024/03/11 12:22:16;;;;;;;0.40;0.23;;;;;;;;;;5111949;27;20291;-61
2024/03/11 12:24:45;;;;;;;0.17;0.17;;;;;;;;;;5110188;28;20194;-61
2024/03/11 12:27:13;;;;;;;0.30;0.30;;;;;;;;;;5118706;27;20219;-61
2024/03/11 12:29:41;;;;;;;0.20;0.20;;;;;;;;;;5110928;27;20192;-62
2024/03/11 12:32:12;;;;;;;0.37;0.37;;;;;;;;;;5112265;27;20297;-62
2024/03/11 12:34:39;;;;;;;0.30;0.30;;;;;;;;;;5110136;28;20283;-62
2024/03/11 12:37:09;;;;;;;1.67;0.27;;;;;;;;;;5116452;27;20318;-61
2024/03/11 12:39:42;;;;;;;0.97;0.33;;;;;;;;;;5111389;28;20599;-62
2024/03/11 12:42:10;;;;;;;0.10;0.10;;;;;;;;;;5125983;27;20306;-62
2024/03/11 12:44:37;;;;;;;0.50;0.20;;;;;;;;;;5114066;27;20196;-62
2024/03/11 12:47:05;;;;;;;0.57;0.20;;;;;;;;;;5109590;28;20251;-62
2024/03/11 12:49:32;;;;;;;1.20;0.30;;;;;;;;;;5110657;28;20739;-62
2024/03/11 12:52:03;;;;;;;0.60;0.30;;;;;;;;;;5109461;28;20659;-62
2024/03/11 12:54:32;;;;;;;0.77;0.20;;;;;;;;;;5110037;28;20562;-64
2024/03/11 12:57:07;;;;;;;0.10;0.10;;;;;;;;;;5097964;28;20233;-60
2024/03/11 12:59:36;;;;;;;0.20;0.10;;;;;;;;;;5105240;28;20231;-59
2024/03/11 13:02:14;;;;;;;0.43;0.20;;;;;;;;;;5106327;27;20727;-59
2024/03/11 13:04:42;;;;;;;2.17;0.20;;;;;;;;;;5111816;27;20548;-59
2024/03/11 13:07:11;;;;;;;0.53;0.10;;;;;;;;;;5107776;28;20223;-60
2024/03/11 13:09:40;;;;;;;0.27;0.20;;;;;;;;;;5111860;27;20204;-59
2024/03/11 13:12:16;;;;;;;1.90;0.10;;;;;;;;;;5116704;27;20249;-60
2024/03/11 13:14:44;;;;;;;0.30;0.20;;;;;;;;;;5116658;27;20203;-59
2024/03/11 13:17:14;;;;;;;0.97;0.40;;;;;;;;;;5110487;28;20223;-59
2024/03/11 13:19:42;;;;;;;0.40;0.10;;;;;;;;;;5113401;27;20211;-59
2024/03/11 13:22:19;;;;;;;0.10;0.10;;;;;;;;;;5107815;28;20203;-59
2024/03/11 13:24:49;;;;;;;0.30;0.10;;;;;;;;;;5116628;27;20198;-59
2024/03/11 13:27:17;;;;;;;0.20;0.20;;;;;;;;;;5110407;28;20244;-59
2024/03/11 13:29:44;;;;;;;0.10;0.10;;;;;;;;;;5116138;28;20617;-59
2024/03/11 13:32:12;;;;;;;0.63;0.17;;;;;;;;;;5113949;28;20191;-59
2024/03/11 13:34:39;;;;;;;0.17;0.10;;;;;;;;;;5108675;28;20199;-59